sensor_id;sensor_type;location;lat;lon;timestamp;P1;durP1;ratioP1;P2;durP2;ratioP2
20527;SDS011;23612;50.894;10.700;2023-04-25T00:01:33;8.98;;;6.68;;
20527;SDS011;23612;50.894;10.700;2023-04-25T00:04:01;11.07;;;6.57;;
20527;SDS011;23612;50.894;10.700;2023-04-25T00:06:27;13.75;;;6.72;;
20527;SDS011;23612;50.894;10.700;2023-04-25T00:08:53;8.82;;;6.43;;
20527;SDS011;23612;50.894;10.700;2023-04-25T00:11:19;9.05;;;6.57;;
20527;SDS011;23612;50.894;10.700;2023-04-25T00:13:44;12.30;;;6.50;;
20527;SDS011;23612;50.894;10.700;2023-04-25T00:16:11;14.30;;;6.20;;
20527;SDS011;23612;50.894;10.700;2023-04-25T00:18:38;11.45;;;6.55;;
20527;SDS011;23612;50.894;10.700;2023-04-25T00:21:04;11.23;;;6.50;;
20527;SDS011;23612;50.894;10.700;2023-04-25T00:23:31;12.20;;;6.70;;
20527;SDS011;23612;50.894;10.700;2023-04-25T00:25:56;11.80;;;7.35;;
20527;SDS011;23612;50.894;10.700;2023-04-25T00:28:22;11.70;;;7.70;;
20527;SDS011;23612;50.894;10.700;2023-04-25T00:30:47;14.35;;;7.75;;
20527;SDS011;23612;50.894;10.700;2023-04-25T00:33:13;11.38;;;7.15;;
20527;SDS011;23612;50.894;10.700;2023-04-25T00:35:38;9.55;;;6.85;;
20527;SDS011;23612;50.894;10.700;2023-04-25T00:38:04;14.75;;;7.72;;
20527;SDS011;23612;50.894;10.700;2023-04-25T00:40:29;11.48;;;7.63;;
20527;SDS011;23612;50.894;10.700;2023-04-25T00:42:55;12.02;;;7.05;;
20527;SDS011;23612;50.894;10.700;2023-04-25T00:45:20;14.35;;;6.90;;
20527;SDS011;23612;50.894;10.700;2023-04-25T00:47:46;11.10;;;7.53;;
20527;SDS011;23612;50.894;10.700;2023-04-25T00:50:12;11.13;;;7.07;;
20527;SDS011;23612;50.894;10.700;2023-04-25T00:52:38;10.43;;;6.68;;
20527;SDS011;23612;50.894;10.700;2023-04-25T00:55:07;14.73;;;7.20;;
20527;SDS011;23612;50.894;10.700;2023-04-25T00:57:33;11.80;;;6.68;;
20527;SDS011;23612;50.894;10.700;2023-04-25T00:59:59;11.70;;;7.35;;
20527;SDS011;23612;50.894;10.700;2023-04-25T01:02:25;10.48;;;7.05;;
20527;SDS011;23612;50.894;10.700;2023-04-25T01:04:51;10.77;;;6.40;;
20527;SDS011;23612;50.894;10.700;2023-04-25T01:07:17;14.10;;;7.43;;
20527;SDS011;23612;50.894;10.700;2023-04-25T01:09:43;13.82;;;7.20;;
20527;SDS011;23612;50.894;10.700;2023-04-25T01:12:08;10.50;;;6.30;;
20527;SDS011;23612;50.894;10.700;2023-04-25T01:14:34;14.05;;;6.30;;
20527;SDS011;23612;50.894;10.700;2023-04-25T01:17:00;13.37;;;6.13;;
20527;SDS011;23612;50.894;10.700;2023-04-25T01:19:25;10.00;;;6.03;;
20527;SDS011;23612;50.894;10.700;2023-04-25T01:21:51;11.10;;;6.40;;
20527;SDS011;23612;50.894;10.700;2023-04-25T01:24:16;9.57;;;6.53;;
20527;SDS011;23612;50.894;10.700;2023-04-25T01:26:42;9.38;;;6.03;;
20527;SDS011;23612;50.894;10.700;2023-04-25T01:29:15;8.68;;;6.20;;
20527;SDS011;23612;50.894;10.700;2023-04-25T01:31:42;10.35;;;6.43;;
20527;SDS011;23612;50.894;10.700;2023-04-25T01:34:09;11.07;;;6.22;;
20527;SDS011;23612;50.894;10.700;2023-04-25T01:36:34;10.60;;;6.63;;
20527;SDS011;23612;50.894;10.700;2023-04-25T01:39:00;9.80;;;5.72;;
20527;SDS011;23612;50.894;10.700;2023-04-25T01:41:26;10.65;;;5.78;;
20527;SDS011;23612;50.894;10.700;2023-04-25T01:43:52;7.68;;;5.70;;
20527;SDS011;23612;50.894;10.700;2023-04-25T01:46:18;9.82;;;6.35;;
20527;SDS011;23612;50.894;10.700;2023-04-25T01:48:43;11.80;;;6.22;;
20527;SDS011;23612;50.894;10.700;2023-04-25T01:51:09;11.05;;;6.30;;
20527;SDS011;23612;50.894;10.700;2023-04-25T01:53:36;9.07;;;6.32;;
20527;SDS011;23612;50.894;10.700;2023-04-25T01:56:02;11.80;;;6.55;;
20527;SDS011;23612;50.894;10.700;2023-04-25T01:58:28;10.90;;;6.05;;
20527;SDS011;23612;50.894;10.700;2023-04-25T02:00:53;9.77;;;6.50;;
20527;SDS011;23612;50.894;10.700;2023-04-25T02:03:19;8.85;;;6.10;;
20527;SDS011;23612;50.894;10.700;2023-04-25T02:05:44;10.80;;;6.18;;
20527;SDS011;23612;50.894;10.700;2023-04-25T02:08:10;8.70;;;6.15;;
20527;SDS011;23612;50.894;10.700;2023-04-25T02:10:36;12.52;;;6.75;;
20527;SDS011;23612;50.894;10.700;2023-04-25T02:13:02;8.23;;;5.93;;
20527;SDS011;23612;50.894;10.700;2023-04-25T02:15:27;12.15;;;6.20;;
20527;SDS011;23612;50.894;10.700;2023-04-25T02:17:53;8.75;;;5.97;;
20527;SDS011;23612;50.894;10.700;2023-04-25T02:20:22;11.98;;;6.43;;
20527;SDS011;23612;50.894;10.700;2023-04-25T02:22:49;14.63;;;6.38;;
20527;SDS011;23612;50.894;10.700;2023-04-25T02:25:14;10.45;;;6.25;;
20527;SDS011;23612;50.894;10.700;2023-04-25T02:27:41;12.57;;;6.45;;
20527;SDS011;23612;50.894;10.700;2023-04-25T02:30:07;9.30;;;6.82;;
20527;SDS011;23612;50.894;10.700;2023-04-25T02:32:33;11.02;;;6.50;;
20527;SDS011;23612;50.894;10.700;2023-04-25T02:34:59;11.63;;;6.85;;
20527;SDS011;23612;50.894;10.700;2023-04-25T02:37:31;10.73;;;6.55;;
20527;SDS011;23612;50.894;10.700;2023-04-25T02:40:00;10.73;;;6.80;;
20527;SDS011;23612;50.894;10.700;2023-04-25T02:42:26;10.15;;;6.43;;
20527;SDS011;23612;50.894;10.700;2023-04-25T02:44:52;9.18;;;6.57;;
20527;SDS011;23612;50.894;10.700;2023-04-25T02:47:18;10.80;;;6.63;;
20527;SDS011;23612;50.894;10.700;2023-04-25T02:49:43;9.07;;;6.60;;
20527;SDS011;23612;50.894;10.700;2023-04-25T02:52:10;12.05;;;7.22;;
20527;SDS011;23612;50.894;10.700;2023-04-25T02:54:35;10.38;;;7.38;;
20527;SDS011;23612;50.894;10.700;2023-04-25T02:57:01;8.52;;;6.90;;
20527;SDS011;23612;50.894;10.700;2023-04-25T02:59:27;8.82;;;7.10;;
20527;SDS011;23612;50.894;10.700;2023-04-25T03:01:53;8.88;;;6.68;;
20527;SDS011;23612;50.894;10.700;2023-04-25T03:04:19;12.65;;;6.88;;
20527;SDS011;23612;50.894;10.700;2023-04-25T03:06:45;11.63;;;7.40;;
20527;SDS011;23612;50.894;10.700;2023-04-25T03:09:11;13.95;;;7.82;;
20527;SDS011;23612;50.894;10.700;2023-04-25T03:11:38;7.32;;;6.03;;
20527;SDS011;23612;50.894;10.700;2023-04-25T03:14:03;11.27;;;6.95;;
20527;SDS011;23612;50.894;10.700;2023-04-25T03:16:29;11.13;;;7.72;;
20527;SDS011;23612;50.894;10.700;2023-04-25T03:18:55;11.32;;;7.25;;
20527;SDS011;23612;50.894;10.700;2023-04-25T03:21:21;10.07;;;7.35;;
20527;SDS011;23612;50.894;10.700;2023-04-25T03:23:47;10.90;;;8.02;;
20527;SDS011;23612;50.894;10.700;2023-04-25T03:26:12;12.05;;;8.13;;
20527;SDS011;23612;50.894;10.700;2023-04-25T03:28:38;21.67;;;8.90;;
20527;SDS011;23612;50.894;10.700;2023-04-25T03:31:04;17.83;;;8.25;;
20527;SDS011;23612;50.894;10.700;2023-04-25T03:33:30;19.58;;;8.40;;
20527;SDS011;23612;50.894;10.700;2023-04-25T03:35:55;15.40;;;9.75;;
20527;SDS011;23612;50.894;10.700;2023-04-25T03:38:21;16.08;;;8.70;;
20527;SDS011;23612;50.894;10.700;2023-04-25T03:40:46;16.83;;;8.85;;
20527;SDS011;23612;50.894;10.700;2023-04-25T03:43:11;16.98;;;8.57;;
20527;SDS011;23612;50.894;10.700;2023-04-25T03:45:37;16.10;;;8.82;;
20527;SDS011;23612;50.894;10.700;2023-04-25T03:48:02;17.00;;;8.77;;
20527;SDS011;23612;50.894;10.700;2023-04-25T03:50:28;18.83;;;8.50;;
20527;SDS011;23612;50.894;10.700;2023-04-25T03:52:54;16.77;;;8.02;;
20527;SDS011;23612;50.894;10.700;2023-04-25T03:55:19;15.98;;;9.15;;
20527;SDS011;23612;50.894;10.700;2023-04-25T03:57:45;22.25;;;9.20;;
20527;SDS011;23612;50.894;10.700;2023-04-25T04:00:10;11.77;;;8.88;;
20527;SDS011;23612;50.894;10.700;2023-04-25T04:02:36;16.52;;;9.43;;
20527;SDS011;23612;50.894;10.700;2023-04-25T04:05:03;18.33;;;8.82;;
20527;SDS011;23612;50.894;10.700;2023-04-25T04:07:30;15.80;;;10.45;;
20527;SDS011;23612;50.894;10.700;2023-04-25T04:09:57;16.02;;;9.35;;
20527;SDS011;23612;50.894;10.700;2023-04-25T04:12:23;14.73;;;8.85;;
20527;SDS011;23612;50.894;10.700;2023-04-25T04:14:49;11.90;;;7.53;;
20527;SDS011;23612;50.894;10.700;2023-04-25T04:17:14;15.40;;;8.90;;
20527;SDS011;23612;50.894;10.700;2023-04-25T04:19:40;14.10;;;8.85;;
20527;SDS011;23612;50.894;10.700;2023-04-25T04:22:05;12.40;;;8.23;;
20527;SDS011;23612;50.894;10.700;2023-04-25T04:24:31;17.05;;;8.70;;
20527;SDS011;23612;50.894;10.700;2023-04-25T04:26:57;17.20;;;9.75;;
20527;SDS011;23612;50.894;10.700;2023-04-25T04:29:23;17.33;;;9.63;;
20527;SDS011;23612;50.894;10.700;2023-04-25T04:31:49;16.30;;;8.98;;
20527;SDS011;23612;50.894;10.700;2023-04-25T04:34:17;21.15;;;9.57;;
20527;SDS011;23612;50.894;10.700;2023-04-25T04:36:43;18.13;;;10.20;;
20527;SDS011;23612;50.894;10.700;2023-04-25T04:39:11;17.35;;;11.05;;
20527;SDS011;23612;50.894;10.700;2023-04-25T04:41:36;17.60;;;9.55;;
20527;SDS011;23612;50.894;10.700;2023-04-25T04:44:02;19.70;;;9.02;;
20527;SDS011;23612;50.894;10.700;2023-04-25T04:46:28;27.25;;;9.45;;
20527;SDS011;23612;50.894;10.700;2023-04-25T04:48:53;27.13;;;14.55;;
20527;SDS011;23612;50.894;10.700;2023-04-25T04:51:19;17.52;;;9.50;;
20527;SDS011;23612;50.894;10.700;2023-04-25T04:53:45;14.40;;;8.68;;
20527;SDS011;23612;50.894;10.700;2023-04-25T04:56:11;18.60;;;8.50;;
20527;SDS011;23612;50.894;10.700;2023-04-25T04:58:36;14.80;;;9.27;;
20527;SDS011;23612;50.894;10.700;2023-04-25T05:01:02;15.50;;;7.65;;
20527;SDS011;23612;50.894;10.700;2023-04-25T05:03:27;16.02;;;7.75;;
20527;SDS011;23612;50.894;10.700;2023-04-25T05:05:54;15.43;;;8.60;;
20527;SDS011;23612;50.894;10.700;2023-04-25T05:08:20;12.73;;;8.35;;
20527;SDS011;23612;50.894;10.700;2023-04-25T05:10:45;17.60;;;8.45;;
20527;SDS011;23612;50.894;10.700;2023-04-25T05:13:11;17.17;;;8.93;;
20527;SDS011;23612;50.894;10.700;2023-04-25T05:15:36;19.48;;;7.90;;
20527;SDS011;23612;50.894;10.700;2023-04-25T05:18:02;20.48;;;7.55;;
20527;SDS011;23612;50.894;10.700;2023-04-25T05:20:27;15.70;;;7.47;;
20527;SDS011;23612;50.894;10.700;2023-04-25T05:22:53;20.88;;;9.70;;
20527;SDS011;23612;50.894;10.700;2023-04-25T05:25:18;18.52;;;10.80;;
20527;SDS011;23612;50.894;10.700;2023-04-25T05:27:44;8.00;;;5.90;;
20527;SDS011;23612;50.894;10.700;2023-04-25T05:30:09;14.02;;;8.60;;
20527;SDS011;23612;50.894;10.700;2023-04-25T05:32:35;10.00;;;5.78;;
20527;SDS011;23612;50.894;10.700;2023-04-25T05:35:01;23.52;;;8.05;;
20527;SDS011;23612;50.894;10.700;2023-04-25T05:37:27;18.88;;;8.95;;
20527;SDS011;23612;50.894;10.700;2023-04-25T05:39:55;20.10;;;10.98;;
20527;SDS011;23612;50.894;10.700;2023-04-25T05:42:20;13.88;;;6.53;;
20527;SDS011;23612;50.894;10.700;2023-04-25T05:44:46;12.73;;;7.22;;
20527;SDS011;23612;50.894;10.700;2023-04-25T05:47:11;11.68;;;5.93;;
20527;SDS011;23612;50.894;10.700;2023-04-25T05:49:37;10.30;;;4.90;;
20527;SDS011;23612;50.894;10.700;2023-04-25T05:52:02;14.40;;;5.72;;
20527;SDS011;23612;50.894;10.700;2023-04-25T05:54:28;14.20;;;5.28;;
20527;SDS011;23612;50.894;10.700;2023-04-25T05:56:53;8.48;;;4.60;;
20527;SDS011;23612;50.894;10.700;2023-04-25T05:59:19;8.30;;;5.40;;
20527;SDS011;23612;50.894;10.700;2023-04-25T06:01:45;8.77;;;4.75;;
20527;SDS011;23612;50.894;10.700;2023-04-25T06:04:11;11.35;;;4.60;;
20527;SDS011;23612;50.894;10.700;2023-04-25T06:06:37;12.65;;;4.53;;
20527;SDS011;23612;50.894;10.700;2023-04-25T06:09:02;8.70;;;4.72;;
20527;SDS011;23612;50.894;10.700;2023-04-25T06:11:28;9.20;;;4.40;;
20527;SDS011;23612;50.894;10.700;2023-04-25T06:13:53;8.80;;;4.70;;
20527;SDS011;23612;50.894;10.700;2023-04-25T06:16:19;6.85;;;4.45;;
20527;SDS011;23612;50.894;10.700;2023-04-25T06:18:44;12.68;;;4.60;;
20527;SDS011;23612;50.894;10.700;2023-04-25T06:21:10;11.60;;;4.50;;
20527;SDS011;23612;50.894;10.700;2023-04-25T06:23:35;8.20;;;4.75;;
20527;SDS011;23612;50.894;10.700;2023-04-25T06:26:01;16.60;;;7.30;;
20527;SDS011;23612;50.894;10.700;2023-04-25T06:28:26;9.73;;;4.60;;
20527;SDS011;23612;50.894;10.700;2023-04-25T06:30:52;13.65;;;6.47;;
20527;SDS011;23612;50.894;10.700;2023-04-25T06:33:17;9.45;;;5.20;;
20527;SDS011;23612;50.894;10.700;2023-04-25T06:35:43;7.53;;;4.60;;
20527;SDS011;23612;50.894;10.700;2023-04-25T06:38:08;7.78;;;4.15;;
20527;SDS011;23612;50.894;10.700;2023-04-25T06:40:34;6.53;;;4.00;;
20527;SDS011;23612;50.894;10.700;2023-04-25T06:42:59;9.40;;;4.70;;
20527;SDS011;23612;50.894;10.700;2023-04-25T06:45:25;6.43;;;4.03;;
20527;SDS011;23612;50.894;10.700;2023-04-25T06:47:50;8.90;;;4.40;;
20527;SDS011;23612;50.894;10.700;2023-04-25T06:50:16;8.75;;;4.13;;
20527;SDS011;23612;50.894;10.700;2023-04-25T06:52:41;6.75;;;4.68;;
20527;SDS011;23612;50.894;10.700;2023-04-25T06:55:07;6.97;;;4.32;;
20527;SDS011;23612;50.894;10.700;2023-04-25T06:57:33;9.43;;;5.03;;
20527;SDS011;23612;50.894;10.700;2023-04-25T06:59:58;8.55;;;4.03;;
20527;SDS011;23612;50.894;10.700;2023-04-25T07:02:24;18.02;;;6.38;;
20527;SDS011;23612;50.894;10.700;2023-04-25T07:04:49;7.95;;;4.18;;
20527;SDS011;23612;50.894;10.700;2023-04-25T07:07:15;4.88;;;3.90;;
20527;SDS011;23612;50.894;10.700;2023-04-25T07:09:42;7.00;;;3.97;;
20527;SDS011;23612;50.894;10.700;2023-04-25T07:12:07;18.42;;;7.53;;
20527;SDS011;23612;50.894;10.700;2023-04-25T07:14:32;19.58;;;9.77;;
20527;SDS011;23612;50.894;10.700;2023-04-25T07:16:58;11.65;;;7.22;;
20527;SDS011;23612;50.894;10.700;2023-04-25T07:19:23;11.57;;;4.68;;
20527;SDS011;23612;50.894;10.700;2023-04-25T07:21:51;11.80;;;6.22;;
20527;SDS011;23612;50.894;10.700;2023-04-25T07:24:17;8.45;;;5.05;;
20527;SDS011;23612;50.894;10.700;2023-04-25T07:26:42;8.57;;;5.55;;
20527;SDS011;23612;50.894;10.700;2023-04-25T07:29:08;6.55;;;4.97;;
20527;SDS011;23612;50.894;10.700;2023-04-25T07:31:34;14.75;;;7.95;;
20527;SDS011;23612;50.894;10.700;2023-04-25T07:34:00;6.32;;;4.03;;
20527;SDS011;23612;50.894;10.700;2023-04-25T07:36:25;5.97;;;4.22;;
20527;SDS011;23612;50.894;10.700;2023-04-25T07:38:52;9.98;;;4.10;;
20527;SDS011;23612;50.894;10.700;2023-04-25T07:41:17;5.30;;;3.63;;
20527;SDS011;23612;50.894;10.700;2023-04-25T07:43:43;6.65;;;4.88;;
20527;SDS011;23612;50.894;10.700;2023-04-25T07:46:08;6.88;;;5.15;;
20527;SDS011;23612;50.894;10.700;2023-04-25T07:48:33;8.43;;;4.35;;
20527;SDS011;23612;50.894;10.700;2023-04-25T07:50:59;8.20;;;4.30;;
20527;SDS011;23612;50.894;10.700;2023-04-25T07:53:24;10.55;;;5.00;;
20527;SDS011;23612;50.894;10.700;2023-04-25T07:55:50;9.48;;;4.50;;
20527;SDS011;23612;50.894;10.700;2023-04-25T07:58:16;6.55;;;4.70;;
20527;SDS011;23612;50.894;10.700;2023-04-25T08:00:46;10.75;;;4.78;;
20527;SDS011;23612;50.894;10.700;2023-04-25T08:03:11;8.43;;;5.18;;
20527;SDS011;23612;50.894;10.700;2023-04-25T08:05:37;6.60;;;4.40;;
20527;SDS011;23612;50.894;10.700;2023-04-25T08:08:03;7.00;;;4.68;;
20527;SDS011;23612;50.894;10.700;2023-04-25T08:10:31;17.80;;;5.03;;
20527;SDS011;23612;50.894;10.700;2023-04-25T08:12:56;9.10;;;4.82;;
20527;SDS011;23612;50.894;10.700;2023-04-25T08:15:22;11.10;;;5.78;;
20527;SDS011;23612;50.894;10.700;2023-04-25T08:17:47;7.80;;;5.32;;
20527;SDS011;23612;50.894;10.700;2023-04-25T08:20:13;9.80;;;5.18;;
20527;SDS011;23612;50.894;10.700;2023-04-25T08:22:38;10.77;;;6.25;;
20527;SDS011;23612;50.894;10.700;2023-04-25T08:25:04;13.23;;;5.45;;
20527;SDS011;23612;50.894;10.700;2023-04-25T08:27:30;12.98;;;5.72;;
20527;SDS011;23612;50.894;10.700;2023-04-25T08:29:55;8.75;;;5.40;;
20527;SDS011;23612;50.894;10.700;2023-04-25T08:32:21;7.85;;;5.05;;
20527;SDS011;23612;50.894;10.700;2023-04-25T08:34:46;10.80;;;6.00;;
20527;SDS011;23612;50.894;10.700;2023-04-25T08:37:12;7.72;;;5.18;;
20527;SDS011;23612;50.894;10.700;2023-04-25T08:39:38;16.90;;;8.70;;
20527;SDS011;23612;50.894;10.700;2023-04-25T08:42:05;45.25;;;19.85;;
20527;SDS011;23612;50.894;10.700;2023-04-25T08:44:35;13.40;;;8.20;;
20527;SDS011;23612;50.894;10.700;2023-04-25T08:47:04;69.07;;;28.27;;
20527;SDS011;23612;50.894;10.700;2023-04-25T08:49:31;9.50;;;6.75;;
20527;SDS011;23612;50.894;10.700;2023-04-25T08:51:59;7.15;;;5.45;;
20527;SDS011;23612;50.894;10.700;2023-04-25T08:54:26;9.38;;;5.95;;
20527;SDS011;23612;50.894;10.700;2023-04-25T08:56:54;10.95;;;6.20;;
20527;SDS011;23612;50.894;10.700;2023-04-25T08:59:22;9.90;;;6.00;;
20527;SDS011;23612;50.894;10.700;2023-04-25T09:01:49;11.02;;;4.75;;
20527;SDS011;23612;50.894;10.700;2023-04-25T09:04:15;10.55;;;4.22;;
20527;SDS011;23612;50.894;10.700;2023-04-25T09:06:40;9.27;;;4.90;;
20527;SDS011;23612;50.894;10.700;2023-04-25T09:09:07;7.53;;;4.80;;
20527;SDS011;23612;50.894;10.700;2023-04-25T09:11:34;8.90;;;6.25;;
20527;SDS011;23612;50.894;10.700;2023-04-25T09:14:10;5.22;;;3.63;;
20527;SDS011;23612;50.894;10.700;2023-04-25T09:19:24;6.68;;;3.88;;
20527;SDS011;23612;50.894;10.700;2023-04-25T09:21:58;6.45;;;4.78;;
20527;SDS011;23612;50.894;10.700;2023-04-25T09:27:20;11.57;;;5.30;;
20527;SDS011;23612;50.894;10.700;2023-04-25T09:29:56;10.73;;;5.20;;
20527;SDS011;23612;50.894;10.700;2023-04-25T09:32:24;10.80;;;6.68;;
20527;SDS011;23612;50.894;10.700;2023-04-25T09:34:51;10.55;;;6.25;;
20527;SDS011;23612;50.894;10.700;2023-04-25T09:37:19;8.20;;;4.82;;
20527;SDS011;23612;50.894;10.700;2023-04-25T09:39:46;4.30;;;3.40;;
20527;SDS011;23612;50.894;10.700;2023-04-25T09:42:16;7.70;;;3.60;;
20527;SDS011;23612;50.894;10.700;2023-04-25T09:44:45;5.18;;;3.55;;
20527;SDS011;23612;50.894;10.700;2023-04-25T09:47:12;15.50;;;6.63;;
20527;SDS011;23612;50.894;10.700;2023-04-25T09:49:40;8.13;;;3.55;;
20527;SDS011;23612;50.894;10.700;2023-04-25T09:52:07;8.02;;;3.83;;
20527;SDS011;23612;50.894;10.700;2023-04-25T09:54:33;11.40;;;4.38;;
20527;SDS011;23612;50.894;10.700;2023-04-25T09:57:00;8.95;;;3.92;;
20527;SDS011;23612;50.894;10.700;2023-04-25T09:59:36;8.90;;;4.40;;
20527;SDS011;23612;50.894;10.700;2023-04-25T10:02:04;7.38;;;3.85;;
20527;SDS011;23612;50.894;10.700;2023-04-25T10:04:32;20.08;;;7.50;;
20527;SDS011;23612;50.894;10.700;2023-04-25T10:07:00;6.22;;;3.17;;
20527;SDS011;23612;50.894;10.700;2023-04-25T10:09:28;6.07;;;3.50;;
20527;SDS011;23612;50.894;10.700;2023-04-25T10:11:58;5.07;;;2.78;;
20527;SDS011;23612;50.894;10.700;2023-04-25T10:14:25;10.13;;;4.55;;
20527;SDS011;23612;50.894;10.700;2023-04-25T10:16:51;6.93;;;2.83;;
20527;SDS011;23612;50.894;10.700;2023-04-25T10:19:19;5.20;;;3.20;;
20527;SDS011;23612;50.894;10.700;2023-04-25T10:21:52;7.68;;;2.65;;
20527;SDS011;23612;50.894;10.700;2023-04-25T10:24:20;8.13;;;3.42;;
20527;SDS011;23612;50.894;10.700;2023-04-25T10:26:46;7.22;;;3.20;;
20527;SDS011;23612;50.894;10.700;2023-04-25T10:29:14;7.80;;;2.92;;
20527;SDS011;23612;50.894;10.700;2023-04-25T10:31:50;9.32;;;3.42;;
20527;SDS011;23612;50.894;10.700;2023-04-25T10:34:16;9.80;;;4.30;;
20527;SDS011;23612;50.894;10.700;2023-04-25T10:36:43;11.10;;;4.20;;
20527;SDS011;23612;50.894;10.700;2023-04-25T10:39:21;10.60;;;3.70;;
20527;SDS011;23612;50.894;10.700;2023-04-25T10:41:52;10.18;;;2.97;;
20527;SDS011;23612;50.894;10.700;2023-04-25T10:44:20;8.85;;;3.10;;
20527;SDS011;23612;50.894;10.700;2023-04-25T10:46:45;6.93;;;2.72;;
20527;SDS011;23612;50.894;10.700;2023-04-25T10:49:11;6.75;;;2.70;;
20527;SDS011;23612;50.894;10.700;2023-04-25T10:52:12;10.65;;;5.05;;
20527;SDS011;23612;50.894;10.700;2023-04-25T10:54:42;10.38;;;2.65;;
20527;SDS011;23612;50.894;10.700;2023-04-25T10:57:37;8.05;;;3.50;;
20527;SDS011;23612;50.894;10.700;2023-04-25T11:02:51;8.68;;;3.95;;
20527;SDS011;23612;50.894;10.700;2023-04-25T11:05:32;10.50;;;3.88;;
20527;SDS011;23612;50.894;10.700;2023-04-25T11:07:58;8.00;;;3.65;;
20527;SDS011;23612;50.894;10.700;2023-04-25T11:10:25;17.35;;;10.15;;
20527;SDS011;23612;50.894;10.700;2023-04-25T11:12:54;9.38;;;3.90;;
20527;SDS011;23612;50.894;10.700;2023-04-25T11:15:20;11.50;;;3.38;;
20527;SDS011;23612;50.894;10.700;2023-04-25T11:17:46;8.95;;;3.13;;
20527;SDS011;23612;50.894;10.700;2023-04-25T11:20:12;10.13;;;4.22;;
20527;SDS011;23612;50.894;10.700;2023-04-25T11:22:39;9.80;;;5.22;;
20527;SDS011;23612;50.894;10.700;2023-04-25T11:25:06;9.88;;;5.50;;
20527;SDS011;23612;50.894;10.700;2023-04-25T11:27:33;12.82;;;5.25;;
20527;SDS011;23612;50.894;10.700;2023-04-25T11:30:09;8.45;;;4.22;;
20527;SDS011;23612;50.894;10.700;2023-04-25T11:32:39;9.13;;;3.90;;
20527;SDS011;23612;50.894;10.700;2023-04-25T11:35:06;6.22;;;3.10;;
20527;SDS011;23612;50.894;10.700;2023-04-25T11:37:32;7.80;;;3.42;;
20527;SDS011;23612;50.894;10.700;2023-04-25T11:39:59;8.73;;;2.67;;
20527;SDS011;23612;50.894;10.700;2023-04-25T11:42:24;4.82;;;2.65;;
20527;SDS011;23612;50.894;10.700;2023-04-25T11:44:50;10.02;;;4.28;;
20527;SDS011;23612;50.894;10.700;2023-04-25T11:47:16;6.70;;;3.90;;
20527;SDS011;23612;50.894;10.700;2023-04-25T11:49:42;9.50;;;3.50;;
20527;SDS011;23612;50.894;10.700;2023-04-25T11:52:07;7.97;;;3.90;;
20527;SDS011;23612;50.894;10.700;2023-04-25T11:54:36;8.20;;;3.03;;
20527;SDS011;23612;50.894;10.700;2023-04-25T11:57:02;7.28;;;2.83;;
20527;SDS011;23612;50.894;10.700;2023-04-25T11:59:28;11.05;;;3.10;;
20527;SDS011;23612;50.894;10.700;2023-04-25T12:01:54;9.30;;;4.03;;
20527;SDS011;23612;50.894;10.700;2023-04-25T12:04:20;8.40;;;3.13;;
20527;SDS011;23612;50.894;10.700;2023-04-25T12:06:48;9.38;;;3.28;;
20527;SDS011;23612;50.894;10.700;2023-04-25T12:09:16;10.18;;;2.97;;
20527;SDS011;23612;50.894;10.700;2023-04-25T12:11:52;9.32;;;3.28;;
20527;SDS011;23612;50.894;10.700;2023-04-25T12:14:28;7.50;;;2.95;;
20527;SDS011;23612;50.894;10.700;2023-04-25T12:16:57;9.48;;;3.03;;
20527;SDS011;23612;50.894;10.700;2023-04-25T12:19:24;13.10;;;3.55;;
20527;SDS011;23612;50.894;10.700;2023-04-25T12:21:51;8.30;;;2.75;;
20527;SDS011;23612;50.894;10.700;2023-04-25T12:24:18;14.02;;;3.80;;
20527;SDS011;23612;50.894;10.700;2023-04-25T12:27:02;11.57;;;3.20;;
20527;SDS011;23612;50.894;10.700;2023-04-25T12:29:30;10.95;;;3.05;;
20527;SDS011;23612;50.894;10.700;2023-04-25T12:31:57;6.43;;;2.80;;
20527;SDS011;23612;50.894;10.700;2023-04-25T12:34:23;8.65;;;3.00;;
20527;SDS011;23612;50.894;10.700;2023-04-25T12:36:50;8.45;;;2.72;;
20527;SDS011;23612;50.894;10.700;2023-04-25T12:39:16;10.65;;;2.65;;
20527;SDS011;23612;50.894;10.700;2023-04-25T12:41:43;10.10;;;3.00;;
20527;SDS011;23612;50.894;10.700;2023-04-25T12:44:09;7.32;;;3.10;;
20527;SDS011;23612;50.894;10.700;2023-04-25T12:46:35;11.95;;;2.97;;
20527;SDS011;23612;50.894;10.700;2023-04-25T12:49:01;15.50;;;3.70;;
20527;SDS011;23612;50.894;10.700;2023-04-25T12:51:28;8.32;;;3.00;;
20527;SDS011;23612;50.894;10.700;2023-04-25T12:53:53;13.00;;;3.67;;
20527;SDS011;23612;50.894;10.700;2023-04-25T12:56:19;7.10;;;2.45;;
20527;SDS011;23612;50.894;10.700;2023-04-25T12:58:44;7.78;;;3.22;;
20527;SDS011;23612;50.894;10.700;2023-04-25T13:01:10;12.73;;;3.22;;
20527;SDS011;23612;50.894;10.700;2023-04-25T13:03:37;12.82;;;2.83;;
20527;SDS011;23612;50.894;10.700;2023-04-25T13:06:02;9.45;;;2.83;;
20527;SDS011;23612;50.894;10.700;2023-04-25T13:08:28;13.48;;;3.42;;
20527;SDS011;23612;50.894;10.700;2023-04-25T13:10:54;23.42;;;4.03;;
20527;SDS011;23612;50.894;10.700;2023-04-25T13:13:20;9.80;;;2.60;;
20527;SDS011;23612;50.894;10.700;2023-04-25T13:15:45;7.93;;;3.28;;
20527;SDS011;23612;50.894;10.700;2023-04-25T13:18:11;11.35;;;2.42;;
20527;SDS011;23612;50.894;10.700;2023-04-25T13:20:36;11.25;;;2.70;;
20527;SDS011;23612;50.894;10.700;2023-04-25T13:23:02;8.40;;;2.67;;
20527;SDS011;23612;50.894;10.700;2023-04-25T13:25:27;6.45;;;2.72;;
20527;SDS011;23612;50.894;10.700;2023-04-25T13:27:53;8.40;;;2.47;;
20527;SDS011;23612;50.894;10.700;2023-04-25T13:30:18;6.90;;;3.13;;
20527;SDS011;23612;50.894;10.700;2023-04-25T13:32:43;11.25;;;3.42;;
20527;SDS011;23612;50.894;10.700;2023-04-25T13:35:10;13.73;;;5.30;;
20527;SDS011;23612;50.894;10.700;2023-04-25T13:37:37;12.48;;;2.72;;
20527;SDS011;23612;50.894;10.700;2023-04-25T13:40:04;14.40;;;5.00;;
20527;SDS011;23612;50.894;10.700;2023-04-25T13:42:34;8.05;;;2.90;;
20527;SDS011;23612;50.894;10.700;2023-04-25T13:45:00;9.90;;;3.25;;
20527;SDS011;23612;50.894;10.700;2023-04-25T13:47:26;13.85;;;3.38;;
20527;SDS011;23612;50.894;10.700;2023-04-25T13:49:52;10.05;;;3.33;;
20527;SDS011;23612;50.894;10.700;2023-04-25T13:52:18;11.50;;;3.28;;
20527;SDS011;23612;50.894;10.700;2023-04-25T13:54:44;9.90;;;4.30;;
20527;SDS011;23612;50.894;10.700;2023-04-25T13:57:09;21.40;;;6.28;;
20527;SDS011;23612;50.894;10.700;2023-04-25T13:59:36;12.80;;;5.85;;
20527;SDS011;23612;50.894;10.700;2023-04-25T14:02:01;9.05;;;3.83;;
20527;SDS011;23612;50.894;10.700;2023-04-25T14:04:27;11.85;;;4.10;;
20527;SDS011;23612;50.894;10.700;2023-04-25T14:06:53;13.15;;;5.65;;
20527;SDS011;23612;50.894;10.700;2023-04-25T14:09:19;12.07;;;4.18;;
20527;SDS011;23612;50.894;10.700;2023-04-25T14:11:47;3.63;;;2.85;;
20527;SDS011;23612;50.894;10.700;2023-04-25T14:14:12;8.10;;;2.88;;
20527;SDS011;23612;50.894;10.700;2023-04-25T14:16:40;8.68;;;3.20;;
20527;SDS011;23612;50.894;10.700;2023-04-25T14:19:06;11.35;;;2.58;;
20527;SDS011;23612;50.894;10.700;2023-04-25T14:21:31;12.23;;;2.75;;
20527;SDS011;23612;50.894;10.700;2023-04-25T14:23:57;12.50;;;3.20;;
20527;SDS011;23612;50.894;10.700;2023-04-25T14:26:23;11.43;;;2.60;;
20527;SDS011;23612;50.894;10.700;2023-04-25T14:28:50;6.05;;;2.75;;
20527;SDS011;23612;50.894;10.700;2023-04-25T14:31:17;6.25;;;2.97;;